createdAt,value
2023-04-25T00:00:12.804Z,99646.94
2023-04-25T00:02:14.451Z,99632.97
2023-04-25T00:04:16.325Z,99643.88
2023-04-25T00:06:18.213Z,99644.00
2023-04-25T00:08:19.620Z,99649.47
2023-04-25T00:10:21.759Z,99649.31
2023-04-25T00:12:23.322Z,99653.63
2023-04-25T00:14:24.731Z,99658.28
2023-04-25T00:16:26.374Z,99659.63
2023-04-25T00:18:27.911Z,99657.03
2023-04-25T00:20:29.336Z,99632.09
2023-04-25T00:22:31.005Z,99655.81
2023-04-25T00:24:32.493Z,99653.53
2023-04-25T00:26:35.580Z,99636.19
2023-04-25T00:28:37.187Z,99654.09
2023-04-25T00:30:39.945Z,99659.25
2023-04-25T00:32:41.525Z,99655.06
2023-04-25T00:34:43.295Z,99651.34
2023-04-25T00:36:44.944Z,99658.75
2023-04-25T00:38:46.350Z,99654.94
2023-04-25T00:40:48.237Z,99650.63
2023-04-25T00:42:50.845Z,99655.19
2023-04-25T00:44:53.755Z,99652.38
2023-04-25T00:46:55.390Z,99623.47
2023-04-25T00:48:56.959Z,99651.88
2023-04-25T00:50:59.839Z,99630.69
2023-04-25T00:53:01.656Z,99641.50
2023-04-25T00:55:03.513Z,99632.66
2023-04-25T00:57:05.128Z,99645.97
2023-04-25T00:59:06.921Z,99644.59
2023-04-25T01:01:09.305Z,99647.91
2023-04-25T01:03:11.117Z,99649.50
2023-04-25T01:05:12.765Z,99649.69
2023-04-25T01:07:14.555Z,99626.63
2023-04-25T01:09:16.055Z,99638.22
2023-04-25T01:11:18.091Z,99622.06
2023-04-25T01:13:19.781Z,99645.38
2023-04-25T01:15:21.299Z,99626.84
2023-04-25T01:17:22.969Z,99644.78
2023-04-25T01:19:24.882Z,99652.00
2023-04-25T01:21:26.363Z,99648.09
2023-04-25T01:23:27.917Z,99644.25
2023-04-25T01:25:30.499Z,99650.91
2023-04-25T01:27:32.111Z,99654.84
2023-04-25T01:29:35.488Z,99632.78
2023-04-25T01:31:37.809Z,99626.25
2023-04-25T01:33:39.344Z,99643.94
2023-04-25T01:35:40.895Z,99642.94
2023-04-25T01:37:43.559Z,99633.97
2023-04-25T01:39:45.197Z,99632.34
2023-04-25T01:41:50.071Z,99629.69
2023-04-25T01:43:51.951Z,99640.38
2023-04-25T01:45:53.597Z,99640.22
2023-04-25T01:47:55.183Z,99612.28
2023-04-25T01:49:57.481Z,99630.03
2023-04-25T01:51:58.972Z,99643.34
2023-04-25T01:54:01.304Z,99643.59
2023-04-25T01:56:02.987Z,99652.50
2023-04-25T01:58:05.166Z,99642.69
2023-04-25T02:00:07.638Z,99644.09
2023-04-25T02:02:09.281Z,99629.50
2023-04-25T02:04:10.917Z,99646.66
2023-04-25T02:06:12.677Z,99629.41
2023-04-25T02:08:14.402Z,99630.94
2023-04-25T02:10:16.009Z,99642.59
2023-04-25T02:12:17.518Z,99634.19
2023-04-25T02:14:19.018Z,99641.63
2023-04-25T02:16:20.570Z,99640.25
2023-04-25T02:18:22.342Z,99650.13
2023-04-25T02:20:25.188Z,99648.78
2023-04-25T02:22:26.585Z,99648.41
2023-04-25T02:24:28.119Z,99641.06
2023-04-25T02:26:30.115Z,99640.59
2023-04-25T02:28:31.606Z,99652.25
2023-04-25T02:30:33.101Z,99632.81
2023-04-25T02:32:35.052Z,99647.50
2023-04-25T02:34:36.525Z,99646.84
2023-04-25T02:36:38.096Z,99654.31
2023-04-25T02:38:40.156Z,99639.88
2023-04-25T02:40:41.756Z,99649.34
2023-04-25T02:42:43.310Z,99616.97
2023-04-25T02:44:44.886Z,99635.06
2023-04-25T02:46:46.404Z,99646.59
2023-04-25T02:48:48.179Z,99645.47
2023-04-25T02:50:49.781Z,99646.16
2023-04-25T02:52:51.192Z,99638.19
2023-04-25T02:54:52.701Z,99649.34
2023-04-25T02:56:54.181Z,99653.75
2023-04-25T02:58:55.580Z,99646.34
2023-04-25T03:00:57.133Z,99653.94
2023-04-25T03:02:58.870Z,99651.09
2023-04-25T03:05:00.360Z,99644.94
2023-04-25T03:07:01.888Z,99646.16
2023-04-25T03:09:03.495Z,99649.69
2023-04-25T03:11:04.964Z,99657.50
2023-04-25T03:13:06.532Z,99649.72
2023-04-25T03:15:08.410Z,99653.00
2023-04-25T03:17:09.792Z,99647.47
2023-04-25T03:19:11.385Z,99653.53
2023-04-25T03:21:12.953Z,99628.44
2023-04-25T03:23:14.383Z,99633.06
2023-04-25T03:25:15.859Z,99644.69
2023-04-25T03:27:18.496Z,99662.03
2023-04-25T03:29:20.009Z,99660.63
2023-04-25T03:31:21.700Z,99643.66
2023-04-25T03:33:23.385Z,99658.97
2023-04-25T03:35:26.006Z,99661.63
2023-04-25T03:37:28.046Z,99661.47
2023-04-25T03:39:29.568Z,99633.81
2023-04-25T03:41:30.962Z,99659.53
2023-04-25T03:43:32.543Z,99658.88
2023-04-25T03:45:34.093Z,99662.13
2023-04-25T03:47:35.579Z,99649.72
2023-04-25T03:49:37.114Z,99660.75
2023-04-25T03:51:39.165Z,99676.91
2023-04-25T03:53:40.578Z,99679.25
2023-04-25T03:55:43.498Z,99673.00
2023-04-25T03:57:45.259Z,99682.94
2023-04-25T03:59:46.682Z,99675.69
2023-04-25T04:01:48.149Z,99685.41
2023-04-25T04:03:50.101Z,99687.31
2023-04-25T04:05:52.044Z,99684.50
2023-04-25T04:07:53.831Z,99662.94
2023-04-25T04:09:55.640Z,99681.88
2023-04-25T04:11:57.061Z,99683.78
2023-04-25T04:13:58.645Z,99676.97
2023-04-25T04:16:00.469Z,99693.84
2023-04-25T04:18:02.015Z,99691.13
2023-04-25T04:20:03.850Z,99697.22
2023-04-25T04:22:05.532Z,99700.31
2023-04-25T04:24:07.116Z,99698.16
2023-04-25T04:26:08.782Z,99690.69
2023-04-25T04:28:10.282Z,99699.25
2023-04-25T04:30:12.014Z,99685.41
2023-04-25T04:32:14.893Z,99688.41
2023-04-25T04:34:16.379Z,99695.88
2023-04-25T04:36:17.800Z,99701.13
2023-04-25T04:38:19.383Z,99694.31
2023-04-25T04:40:21.183Z,99705.44
2023-04-25T04:42:22.729Z,99706.88
2023-04-25T04:44:24.256Z,99710.34
2023-04-25T04:46:25.954Z,99711.38
2023-04-25T04:48:27.498Z,99711.38
2023-04-25T04:50:29.091Z,99713.94
2023-04-25T04:52:30.935Z,99713.94
2023-04-25T04:54:32.349Z,99704.56
2023-04-25T04:56:33.936Z,99709.50
2023-04-25T04:58:35.542Z,99718.13
2023-04-25T05:00:37.020Z,99706.69
2023-04-25T05:02:39.694Z,99723.94
2023-04-25T05:04:41.670Z,99703.25
2023-04-25T05:06:44.000Z,99713.84
2023-04-25T05:08:45.795Z,99714.31
2023-04-25T05:10:47.476Z,99718.28
2023-04-25T05:12:48.871Z,99726.56
2023-04-25T05:14:50.515Z,99730.06
2023-04-25T05:16:52.145Z,99719.28
2023-04-25T05:18:53.606Z,99715.50
2023-04-25T05:20:55.078Z,99713.16
2023-04-25T05:22:56.798Z,99722.63
2023-04-25T05:24:58.234Z,99741.00
2023-04-25T05:26:59.869Z,99732.22
2023-04-25T05:29:01.684Z,99745.16
2023-04-25T05:31:03.084Z,99740.84
2023-04-25T05:33:04.631Z,99741.88
2023-04-25T05:35:06.603Z,99717.19
2023-04-25T05:37:08.302Z,99736.38
2023-04-25T05:39:09.927Z,99745.94
2023-04-25T05:41:11.464Z,99746.28
2023-04-25T05:43:12.923Z,99751.25
2023-04-25T05:45:14.681Z,99748.94
2023-04-25T05:47:16.184Z,99751.56
2023-04-25T05:49:19.510Z,99756.75
2023-04-25T05:51:21.419Z,99731.06
2023-04-25T05:53:23.010Z,99745.94
2023-04-25T05:55:24.535Z,99746.97
2023-04-25T05:57:28.022Z,99730.44
2023-04-25T05:59:29.499Z,99753.56
2023-04-25T06:01:31.075Z,99734.03
2023-04-25T06:03:32.829Z,99750.75
2023-04-25T06:05:34.525Z,99748.56
2023-04-25T06:07:36.044Z,99741.44
2023-04-25T06:09:37.529Z,99725.41
2023-04-25T06:11:39.107Z,99755.53
2023-04-25T06:13:40.619Z,99755.03
2023-04-25T06:15:42.169Z,99765.19
2023-04-25T06:17:43.814Z,99756.53
2023-04-25T06:19:45.264Z,99746.59
2023-04-25T06:21:46.849Z,99759.78
2023-04-25T06:23:48.895Z,99755.91
2023-04-25T06:25:50.995Z,99753.66
2023-04-25T06:27:52.612Z,99751.31
2023-04-25T06:29:54.227Z,99768.41
2023-04-25T06:31:55.640Z,99763.06
2023-04-25T06:33:57.121Z,99765.50
2023-04-25T06:35:58.650Z,99773.03
2023-04-25T06:38:00.029Z,99749.91
2023-04-25T06:40:01.668Z,99755.81
2023-04-25T06:42:03.233Z,99771.72
2023-04-25T06:44:04.659Z,99779.84
2023-04-25T06:46:06.204Z,99783.31
2023-04-25T06:48:07.731Z,99777.28
2023-04-25T06:50:09.646Z,99789.22
2023-04-25T06:52:11.410Z,99770.09
2023-04-25T06:54:12.790Z,99792.63
2023-04-25T06:56:14.206Z,99789.66
2023-04-25T06:58:15.988Z,99788.56
2023-04-25T07:00:17.814Z,99786.13
2023-04-25T07:02:19.434Z,99779.97
2023-04-25T07:04:21.255Z,99769.41
2023-04-25T07:06:22.936Z,99782.22
2023-04-25T07:08:24.340Z,99788.44
2023-04-25T07:10:26.026Z,99793.69
2023-04-25T07:12:27.676Z,99789.72
2023-04-25T07:14:29.247Z,99798.59
2023-04-25T07:16:30.975Z,99787.97
2023-04-25T07:18:32.600Z,99793.28
2023-04-25T07:20:34.021Z,99791.97
2023-04-25T07:22:35.884Z,99787.88
2023-04-25T07:24:37.280Z,99784.69
2023-04-25T07:26:38.685Z,99789.13
2023-04-25T07:28:40.170Z,99795.97
2023-04-25T07:30:41.622Z,99779.53
2023-04-25T07:32:43.167Z,99795.94
2023-04-25T07:34:44.589Z,99761.13
2023-04-25T07:36:46.101Z,99798.19
2023-04-25T07:38:47.541Z,99805.53
2023-04-25T07:40:49.798Z,99793.38
2023-04-25T07:42:51.266Z,99813.25
2023-04-25T07:44:52.695Z,99790.72
2023-04-25T07:46:54.740Z,99791.84
2023-04-25T07:48:56.217Z,99785.84
2023-04-25T07:50:57.731Z,99809.31
2023-04-25T07:52:59.257Z,99800.97
2023-04-25T07:55:00.822Z,99801.81
2023-04-25T07:57:02.261Z,99810.13
2023-04-25T07:59:03.722Z,99791.94
2023-04-25T08:01:05.186Z,99816.09
2023-04-25T08:03:06.769Z,99803.22
2023-04-25T08:05:08.751Z,99814.63
2023-04-25T08:07:10.324Z,99805.31
2023-04-25T08:09:11.895Z,99816.84
2023-04-25T08:11:13.332Z,99824.41
2023-04-25T08:13:14.904Z,99823.06
2023-04-25T08:15:16.308Z,99817.03
2023-04-25T08:17:17.747Z,99805.25
2023-04-25T08:19:19.196Z,99806.47
2023-04-25T08:21:20.825Z,99836.19
2023-04-25T08:23:22.212Z,99830.66
2023-04-25T08:25:23.901Z,99825.75
2023-04-25T08:27:25.348Z,99824.28
2023-04-25T08:29:26.805Z,99833.66
2023-04-25T08:31:28.485Z,99835.78
2023-04-25T08:33:29.970Z,99829.41
2023-04-25T08:35:31.467Z,99840.91
2023-04-25T08:37:33.266Z,99821.59
2023-04-25T08:39:34.707Z,99818.59
2023-04-25T08:41:38.200Z,99833.44
2023-04-25T08:43:43.589Z,99838.34
2023-04-25T08:45:45.374Z,99813.19
2023-04-25T08:47:48.735Z,99838.50
2023-04-25T08:49:54.931Z,99828.06
2023-04-25T08:52:03.709Z,99840.28
2023-04-25T08:54:27.196Z,99831.44
2023-04-25T08:56:33.334Z,99838.34
2023-04-25T08:58:34.879Z,99843.94
2023-04-25T09:00:36.405Z,99842.22
2023-04-25T09:02:38.340Z,99837.19
2023-04-25T09:04:40.158Z,99840.47
2023-04-25T09:06:42.105Z,99827.31
2023-04-25T09:08:43.708Z,99837.06
2023-04-25T09:10:45.181Z,99843.47
2023-04-25T09:13:03.108Z,99844.31
2023-04-25T09:15:07.370Z,99849.75
2023-04-25T09:17:08.935Z,99851.34
2023-04-25T09:19:31.990Z,99851.66
2023-04-25T09:21:40.134Z,99851.66
2023-04-25T09:23:49.650Z,99848.38
2023-04-25T09:25:53.502Z,99846.69
2023-04-25T09:27:55.092Z,99853.41
2023-04-25T09:29:59.972Z,99847.91
2023-04-25T09:32:23.997Z,99858.69
2023-04-25T09:34:26.871Z,99844.94
2023-04-25T09:36:29.186Z,99852.78
2023-04-25T09:38:32.276Z,99846.22
2023-04-25T09:40:33.694Z,99856.22
2023-04-25T09:42:35.161Z,99835.28
2023-04-25T09:44:37.094Z,99844.00
2023-04-25T09:46:38.754Z,99838.72
2023-04-25T09:48:40.305Z,99850.47
2023-04-25T09:50:42.056Z,99846.78
2023-04-25T09:52:43.956Z,99845.19
2023-04-25T09:54:49.522Z,99845.84
2023-04-25T09:56:53.188Z,99843.13
2023-04-25T09:58:54.695Z,99847.00
2023-04-25T10:01:00.898Z,99854.88
2023-04-25T10:03:03.497Z,99837.56
2023-04-25T10:05:10.059Z,99856.09
2023-04-25T10:07:12.136Z,99847.00
2023-04-25T10:09:14.901Z,99862.19
2023-04-25T10:11:16.762Z,99855.38
2023-04-25T10:13:18.449Z,99857.88
2023-04-25T10:15:20.985Z,99860.94
2023-04-25T10:17:22.430Z,99852.97
2023-04-25T10:19:24.934Z,99854.63
2023-04-25T10:21:29.458Z,99856.72
2023-04-25T10:23:32.255Z,99856.41
2023-04-25T10:25:34.497Z,99856.69
2023-04-25T10:27:36.779Z,99862.94
2023-04-25T10:29:38.193Z,99858.75
2023-04-25T10:31:48.764Z,99868.13
2023-04-25T10:33:50.691Z,99849.91
2023-04-25T10:35:52.383Z,99867.84
2023-04-25T10:38:26.800Z,99868.38
2023-04-25T10:40:28.965Z,99858.28
2023-04-25T10:42:30.403Z,99847.72
2023-04-25T10:44:32.783Z,99862.78
2023-04-25T10:46:34.905Z,99865.81
2023-04-25T10:48:36.371Z,99861.13
2023-04-25T10:50:41.905Z,99851.50
2023-04-25T10:52:43.671Z,99866.03
2023-04-25T10:54:59.176Z,99858.34
2023-04-25T10:57:00.628Z,99860.09
2023-04-25T10:59:15.361Z,99861.03
2023-04-25T11:01:21.347Z,99864.06
2023-04-25T11:03:22.986Z,99868.53
2023-04-25T11:05:36.467Z,99874.81
2023-04-25T11:08:04.027Z,99872.44
2023-04-25T11:10:08.633Z,99849.94
2023-04-25T11:12:10.895Z,99873.34
2023-04-25T11:14:12.318Z,99865.81
2023-04-25T11:16:23.739Z,99869.69
2023-04-25T11:18:29.250Z,99860.28
2023-04-25T11:20:30.682Z,99867.84
2023-04-25T11:22:32.492Z,99861.75
2023-04-25T11:24:35.965Z,99870.75
2023-04-25T11:26:37.391Z,99873.16
2023-04-25T11:28:38.822Z,99872.28
2023-04-25T11:30:41.423Z,99873.81
2023-04-25T11:32:43.436Z,99871.81
2023-04-25T11:34:45.446Z,99873.22
2023-04-25T11:36:47.427Z,99880.47
2023-04-25T11:38:48.891Z,99886.78
2023-04-25T11:40:54.021Z,99882.88
2023-04-25T11:42:55.945Z,99882.50
2023-04-25T11:44:57.548Z,99868.19
2023-04-25T11:46:58.933Z,99855.53
2023-04-25T11:49:00.639Z,99866.63
2023-04-25T11:51:02.059Z,99876.19
2023-04-25T11:53:03.484Z,99885.63
2023-04-25T11:55:16.076Z,99866.44
2023-04-25T11:57:20.652Z,99876.34
2023-04-25T11:59:25.010Z,99865.56
2023-04-25T12:01:36.002Z,99863.97
2023-04-25T12:03:47.553Z,99860.94
2023-04-25T12:05:49.378Z,99876.47
2023-04-25T12:07:51.265Z,99873.63
2023-04-25T12:09:53.010Z,99872.28
2023-04-25T12:11:56.440Z,99872.84
2023-04-25T12:14:03.167Z,99866.75
2023-04-25T12:16:04.824Z,99864.13
2023-04-25T12:18:07.532Z,99857.06
2023-04-25T12:20:16.732Z,99850.00
2023-04-25T12:22:25.249Z,99879.19
2023-04-25T12:24:27.847Z,99855.06
2023-04-25T12:26:47.211Z,99858.97
2023-04-25T12:28:48.727Z,99872.28
2023-04-25T12:31:00.495Z,99868.97
2023-04-25T12:33:02.233Z,99862.50
2023-04-25T12:35:03.823Z,99866.97
2023-04-25T12:37:05.221Z,99866.69
2023-04-25T12:39:07.129Z,99863.47
2023-04-25T12:41:09.779Z,99848.22
2023-04-25T12:43:11.166Z,99863.63
2023-04-25T12:45:13.001Z,99870.75
2023-04-25T12:47:14.873Z,99874.06
2023-04-25T12:49:19.370Z,99869.16
2023-04-25T12:51:21.235Z,99869.34
2023-04-25T12:53:24.129Z,99851.72
2023-04-25T12:55:25.568Z,99875.81
2023-04-25T12:57:27.347Z,99874.09
2023-04-25T12:59:28.791Z,99873.53
2023-04-25T13:01:30.847Z,99876.63
2023-04-25T13:03:32.797Z,99870.13
2023-04-25T13:05:34.403Z,99873.97
2023-04-25T13:07:36.069Z,99870.22
2023-04-25T13:09:37.835Z,99856.50
2023-04-25T13:11:39.280Z,99873.97
2023-04-25T13:13:40.708Z,99879.28
2023-04-25T13:15:42.352Z,99870.94
2023-04-25T13:17:43.910Z,99877.53
2023-04-25T13:19:45.395Z,99872.09
2023-04-25T13:21:47.045Z,99886.41
2023-04-25T13:23:48.466Z,99880.53
2023-04-25T13:25:50.202Z,99892.56
2023-04-25T13:27:51.948Z,99880.84
2023-04-25T13:29:53.354Z,99879.09
2023-04-25T13:31:54.782Z,99880.19
2023-04-25T13:33:56.599Z,99882.06
2023-04-25T13:35:58.112Z,99876.47
2023-04-25T13:37:59.687Z,99866.00
2023-04-25T13:40:02.325Z,99863.03
2023-04-25T13:42:03.823Z,99886.13
2023-04-25T13:44:05.299Z,99880.50
2023-04-25T13:46:06.911Z,99842.94
2023-04-25T13:48:08.509Z,99883.44
2023-04-25T13:50:10.331Z,99881.97
2023-04-25T13:52:12.305Z,99881.28
2023-04-25T13:54:13.720Z,99887.66
2023-04-25T13:56:15.183Z,99878.94
2023-04-25T13:58:16.657Z,99872.53
2023-04-25T14:00:19.053Z,99890.66
2023-04-25T14:02:20.507Z,99898.88
2023-04-25T14:04:22.317Z,99893.03
2023-04-25T14:06:23.807Z,99892.50
2023-04-25T14:08:25.248Z,99887.41
2023-04-25T14:10:27.404Z,99889.75
2023-04-25T14:12:28.805Z,99879.28
2023-04-25T14:14:30.206Z,99901.97
2023-04-25T14:16:32.268Z,99878.47
2023-04-25T14:18:33.704Z,99895.16
2023-04-25T14:20:35.186Z,99897.91
2023-04-25T14:22:36.855Z,99877.03
2023-04-25T14:24:38.605Z,99884.91
2023-04-25T14:26:40.219Z,99890.41
2023-04-25T14:28:41.887Z,99882.06
2023-04-25T14:30:43.291Z,99890.69
2023-04-25T14:32:44.778Z,99887.56
2023-04-25T14:34:46.369Z,99877.09
2023-04-25T14:36:47.758Z,99883.06
2023-04-25T14:38:49.212Z,99880.66
2023-04-25T14:40:50.999Z,99889.84
2023-04-25T14:42:52.388Z,99888.75
2023-04-25T14:44:53.792Z,99888.56
2023-04-25T14:46:55.625Z,99883.69
2023-04-25T14:48:57.428Z,99874.06
2023-04-25T14:50:58.885Z,99896.72
2023-04-25T14:53:00.808Z,99856.41
2023-04-25T14:55:02.484Z,99888.47
2023-04-25T14:57:04.022Z,99873.59
2023-04-25T14:59:05.465Z,99874.00
2023-04-25T15:01:07.151Z,99875.78
2023-04-25T15:03:08.734Z,99896.72
2023-04-25T15:05:10.533Z,99895.16
2023-04-25T15:07:12.070Z,99891.22
2023-04-25T15:09:13.507Z,99901.19
2023-04-25T15:11:15.076Z,99886.06
2023-04-25T15:13:16.487Z,99897.13
2023-04-25T15:15:25.925Z,99897.78
2023-04-25T15:17:28.586Z,99893.06
2023-04-25T15:19:30.031Z,99905.84
2023-04-25T15:21:32.132Z,99890.31
2023-04-25T15:23:34.031Z,99908.56
2023-04-25T15:25:35.446Z,99915.72
2023-04-25T15:27:37.665Z,99904.06
2023-04-25T15:29:39.248Z,99907.19
2023-04-25T15:31:40.698Z,99897.56
2023-04-25T15:33:42.158Z,99899.81
2023-04-25T15:35:43.865Z,99904.91
2023-04-25T15:37:45.344Z,99908.50
2023-04-25T15:39:46.745Z,99901.94
2023-04-25T15:41:48.183Z,99904.00
2023-04-25T15:43:50.119Z,99909.03
2023-04-25T15:45:51.709Z,99887.63
2023-04-25T15:47:54.774Z,99903.47
2023-04-25T15:49:56.251Z,99909.34
2023-04-25T15:51:57.712Z,99909.25
2023-04-25T15:53:59.281Z,99903.97
2023-04-25T15:56:00.778Z,99895.56
2023-04-25T15:58:02.816Z,99871.47
2023-04-25T16:00:06.774Z,99897.81
2023-04-25T16:02:09.185Z,99900.00
2023-04-25T16:04:10.931Z,99901.22
2023-04-25T16:06:13.055Z,99893.84
2023-04-25T16:08:14.469Z,99882.94
2023-04-25T16:10:16.340Z,99894.34
2023-04-25T16:12:17.911Z,99878.53
2023-04-25T16:14:19.363Z,99896.31
2023-04-25T16:16:20.808Z,99899.84
2023-04-25T16:18:22.407Z,99899.81
2023-04-25T16:20:23.907Z,99899.78
2023-04-25T16:22:25.495Z,99898.97
2023-04-25T16:24:27.142Z,99879.69
2023-04-25T16:26:28.579Z,99895.84
2023-04-25T16:28:29.979Z,99898.72
2023-04-25T16:30:31.605Z,99898.06
2023-04-25T16:32:33.014Z,99905.44
2023-04-25T16:34:34.439Z,99891.78
2023-04-25T16:36:35.843Z,99902.03
2023-04-25T16:38:37.280Z,99901.16
2023-04-25T16:40:38.701Z,99899.09
2023-04-25T16:42:40.191Z,99893.50
2023-04-25T16:44:41.619Z,99897.63
2023-04-25T16:46:43.147Z,99906.78
2023-04-25T16:48:44.648Z,99915.59
2023-04-25T16:50:46.262Z,99917.88
2023-04-25T16:52:47.675Z,99909.38
2023-04-25T16:54:49.271Z,99899.16
2023-04-25T16:56:51.132Z,99915.81
2023-04-25T16:58:53.244Z,99914.22
2023-04-25T17:00:55.241Z,99920.31
2023-04-25T17:02:56.986Z,99911.56
2023-04-25T17:04:58.475Z,99915.16
2023-04-25T17:07:00.067Z,99922.44
2023-04-25T17:09:01.691Z,99927.97
2023-04-25T17:11:03.613Z,99930.19
2023-04-25T17:13:05.128Z,99930.06
2023-04-25T17:15:07.296Z,99939.22
2023-04-25T17:17:08.839Z,99916.00
2023-04-25T17:19:10.928Z,99902.81
2023-04-25T17:21:12.427Z,99915.72
2023-04-25T17:23:13.846Z,99902.47
2023-04-25T17:25:15.470Z,99939.03
2023-04-25T17:27:16.939Z,99894.50
2023-04-25T17:29:18.376Z,99911.38
2023-04-25T17:31:21.132Z,99942.81
2023-04-25T17:33:22.566Z,99940.22
2023-04-25T17:35:24.009Z,99935.72
2023-04-25T17:37:25.936Z,99939.88
2023-04-25T17:39:27.351Z,99939.69
2023-04-25T17:41:28.750Z,99948.06
2023-04-25T17:43:31.102Z,99949.16
2023-04-25T17:45:32.835Z,99948.38
2023-04-25T17:47:34.406Z,99954.25
2023-04-25T17:49:36.966Z,99961.34
2023-04-25T17:51:38.425Z,99949.28
2023-04-25T17:53:39.826Z,99969.41
2023-04-25T17:55:41.453Z,99957.28
2023-04-25T17:57:42.841Z,99966.78
2023-04-25T17:59:44.314Z,99956.00
2023-04-25T18:01:48.046Z,99970.94
2023-04-25T18:03:50.319Z,99958.19
2023-04-25T18:05:52.051Z,99981.38
2023-04-25T18:07:53.678Z,99971.75
2023-04-25T18:09:55.078Z,99990.47
2023-04-25T18:11:56.526Z,99965.31
2023-04-25T18:13:58.661Z,99990.34
2023-04-25T18:16:00.100Z,99994.97
2023-04-25T18:18:01.650Z,99991.16
2023-04-25T18:20:03.222Z,99993.50
2023-04-25T18:22:04.644Z,100003.94
2023-04-25T18:24:07.117Z,99972.28
2023-04-25T18:26:08.867Z,99986.38
2023-04-25T18:28:10.277Z,99980.56
2023-04-25T18:30:13.087Z,100005.94
2023-04-25T18:32:14.808Z,99962.81
2023-04-25T18:34:16.207Z,100006.75
2023-04-25T18:36:17.602Z,100014.03
2023-04-25T18:38:31.731Z,100016.00
2023-04-25T18:40:47.016Z,100022.97
2023-04-25T18:42:55.542Z,100035.88
2023-04-25T18:44:57.152Z,100040.84
2023-04-25T18:46:58.605Z,100037.06
2023-04-25T18:49:00.866Z,100041.53
2023-04-25T18:51:02.580Z,100041.00
2023-04-25T18:53:04.009Z,100032.72
2023-04-25T18:55:05.929Z,100044.19
2023-04-25T18:57:07.480Z,100046.50
2023-04-25T18:59:08.888Z,100045.53
2023-04-25T19:01:10.320Z,100053.13
2023-04-25T19:03:12.065Z,100049.50
2023-04-25T19:05:13.585Z,100052.66
2023-04-25T19:07:15.116Z,100052.66
2023-04-25T19:09:16.945Z,100059.75
2023-04-25T19:11:21.059Z,100047.13
2023-04-25T19:13:22.914Z,100069.81
2023-04-25T19:15:24.642Z,100062.06
2023-04-25T19:17:27.343Z,100066.72
2023-04-25T19:19:29.837Z,100073.53
2023-04-25T19:21:32.434Z,100076.78
2023-04-25T19:23:34.576Z,100062.25
2023-04-25T19:25:36.594Z,100066.13
2023-04-25T19:27:38.925Z,100078.19
2023-04-25T19:29:40.312Z,100083.41
2023-04-25T19:31:43.825Z,100090.38
2023-04-25T19:33:45.470Z,100091.38
2023-04-25T19:35:46.882Z,100092.03
2023-04-25T19:37:48.283Z,100079.66
2023-04-25T19:39:49.901Z,100091.56
2023-04-25T19:41:51.327Z,100104.28
2023-04-25T19:43:53.281Z,100068.75
2023-04-25T19:45:55.104Z,100104.13
2023-04-25T19:47:56.693Z,100100.16
2023-04-25T19:49:58.124Z,100084.66
2023-04-25T19:51:59.579Z,100100.06
2023-04-25T19:54:01.068Z,100102.97
2023-04-25T19:56:02.648Z,100082.81
2023-04-25T19:58:04.340Z,100110.50
2023-04-25T20:00:13.367Z,100117.44
2023-04-25T20:02:14.843Z,100119.91
2023-04-25T20:04:16.520Z,100105.28
2023-04-25T20:06:18.212Z,100095.69
2023-04-25T20:08:19.701Z,100088.03
2023-04-25T20:10:21.251Z,100119.44
2023-04-25T20:12:22.739Z,100114.56
2023-04-25T20:14:25.396Z,100103.91
2023-04-25T20:16:27.037Z,100118.59
2023-04-25T20:18:28.505Z,100116.31
2023-04-25T20:20:30.193Z,100119.03
2023-04-25T20:22:31.973Z,100121.72
2023-04-25T20:24:33.391Z,100123.97
2023-04-25T20:26:34.927Z,100093.50
2023-04-25T20:28:36.431Z,100090.91
2023-04-25T20:30:37.857Z,100131.50
2023-04-25T20:32:39.749Z,100138.22
2023-04-25T20:34:41.382Z,100135.72
2023-04-25T20:36:42.754Z,100146.59
2023-04-25T20:38:44.377Z,100117.50
2023-04-25T20:40:45.959Z,100134.56
2023-04-25T20:42:47.415Z,100135.09
2023-04-25T20:44:49.017Z,100143.03
2023-04-25T20:46:51.151Z,100145.97
2023-04-25T20:48:53.022Z,100136.97
2023-04-25T20:50:54.758Z,100138.28
2023-04-25T20:52:56.201Z,100138.78
2023-04-25T20:54:57.653Z,100147.94
2023-04-25T20:56:59.258Z,100148.25
2023-04-25T20:59:00.661Z,100137.97
2023-04-25T21:01:02.611Z,100142.94
2023-04-25T21:03:04.451Z,100127.94
2023-04-25T21:05:06.458Z,100157.44
2023-04-25T21:07:07.934Z,100159.72
2023-04-25T21:09:09.438Z,100164.56
2023-04-25T21:11:11.694Z,100141.38
2023-04-25T21:13:13.194Z,100164.63
2023-04-25T21:15:15.901Z,100167.69
2023-04-25T21:17:17.641Z,100162.44
2023-04-25T21:19:19.072Z,100169.09
2023-04-25T21:21:20.485Z,100145.44
2023-04-25T21:23:21.915Z,100154.50
2023-04-25T21:25:26.138Z,100161.44
2023-04-25T21:27:27.832Z,100155.25
2023-04-25T21:29:29.236Z,100162.06
2023-04-25T21:31:30.745Z,100154.50
2023-04-25T21:33:32.413Z,100126.53
2023-04-25T21:35:33.798Z,100155.41
2023-04-25T21:37:35.207Z,100160.75
2023-04-25T21:39:37.084Z,100134.53
2023-04-25T21:41:38.721Z,100160.72
2023-04-25T21:43:40.157Z,100160.56
2023-04-25T21:46:02.114Z,100163.44
2023-04-25T21:48:03.110Z,100171.72
2023-04-25T21:50:04.878Z,100167.34
2023-04-25T21:52:06.516Z,100169.09
2023-04-25T21:54:08.062Z,100174.16
2023-04-25T21:56:09.881Z,100157.09
2023-04-25T21:58:11.280Z,100164.41
2023-04-25T22:00:13.115Z,100169.56
2023-04-25T22:02:15.148Z,100168.72
2023-04-25T22:04:16.922Z,100156.41
2023-04-25T22:06:18.807Z,100158.50
2023-04-25T22:08:20.202Z,100167.75
2023-04-25T22:10:22.052Z,100169.09
2023-04-25T22:12:23.809Z,100168.72
2023-04-25T22:14:25.288Z,100171.03
2023-04-25T22:16:26.895Z,100152.28
2023-04-25T22:18:28.475Z,100176.59
2023-04-25T22:20:29.897Z,100165.03
2023-04-25T22:22:31.480Z,100170.47
2023-04-25T22:24:33.002Z,100153.44
2023-04-25T22:26:34.399Z,100168.41
2023-04-25T22:28:37.092Z,100151.16
2023-04-25T22:30:38.589Z,100183.13
2023-04-25T22:32:40.250Z,100185.56
2023-04-25T22:34:41.777Z,100174.75
2023-04-25T22:36:43.522Z,100160.53
2023-04-25T22:38:45.446Z,100174.97
2023-04-25T22:40:46.929Z,100185.13
2023-04-25T22:42:48.496Z,100171.44
2023-04-25T22:44:50.327Z,100179.75
2023-04-25T22:46:51.786Z,100180.56
2023-04-25T22:48:53.664Z,100183.97
2023-04-25T22:51:02.643Z,100186.03
2023-04-25T22:53:04.123Z,100181.78
2023-04-25T22:55:06.371Z,100180.41
2023-04-25T22:57:07.796Z,100148.13
2023-04-25T22:59:09.380Z,100174.03
2023-04-25T23:01:10.903Z,100178.16
2023-04-25T23:03:12.421Z,100187.06
2023-04-25T23:05:14.845Z,100175.75
2023-04-25T23:07:16.532Z,100183.44
2023-04-25T23:09:18.000Z,100187.50
2023-04-25T23:11:19.564Z,100177.75
2023-04-25T23:13:21.457Z,100186.09
2023-04-25T23:15:25.589Z,100186.28
2023-04-25T23:17:27.070Z,100187.13
2023-04-25T23:19:28.648Z,100196.16
2023-04-25T23:21:30.096Z,100193.88
2023-04-25T23:23:31.598Z,100194.31
2023-04-25T23:25:33.653Z,100197.13
2023-04-25T23:27:35.077Z,100204.41
2023-04-25T23:29:36.536Z,100176.78
2023-04-25T23:31:38.120Z,100204.41
2023-04-25T23:33:39.549Z,100205.13
2023-04-25T23:35:41.028Z,100192.28
2023-04-25T23:37:42.492Z,100209.31
2023-04-25T23:39:50.629Z,100200.59
2023-04-25T23:41:52.230Z,100190.50
2023-04-25T23:43:54.179Z,100212.47
2023-04-25T23:45:55.635Z,100211.94